Time;durP1;ratioP1;P1;durP2;ratioP2;P2;SDS_P1;SDS_P2;PMS_P1;PMS_P2;Temp;Humidity;BMP_temperature;BMP_pressure;BME280_temperature;BME280_humidity;BME280_pressure;Samples;Min_cycle;Max_cycle;Signal;HPM_P1;HPM_P2
2022/12/14 00:01:23;;;;;;;5.75;4.60;;;;;;;-2.84;71.46;99809.16;1599657;87;21107;-74
2022/12/14 00:03:50;;;;;;;6.20;4.75;;;;;;;-2.86;71.45;99806.23;1607221;88;22331;-73
2022/12/14 00:06:26;;;;;;;5.25;4.37;;;;;;;-2.90;71.49;99811.48;1598835;88;21042;-74
2022/12/14 00:08:57;;;;;;;6.92;5.20;;;;;;;-2.93;71.48;99819.80;1606161;88;21584;-73
2022/12/14 00:11:25;;;;;;;7.05;4.97;;;;;;;-2.99;71.52;99818.28;1603412;87;21503;-73
2022/12/14 00:13:54;;;;;;;6.25;5.05;;;;;;;-3.01;71.63;99820.05;1595627;88;20993;-73
2022/12/14 00:16:22;;;;;;;8.50;5.40;;;;;;;-3.03;71.70;99825.71;1591352;88;22577;-73
2022/12/14 00:18:51;;;;;;;7.53;5.58;;;;;;;-3.05;71.71;99825.37;1593986;88;21540;-72
2022/12/14 00:21:18;;;;;;;6.97;5.15;;;;;;;-3.05;71.72;99830.54;1589559;89;21072;-73
2022/12/14 00:23:45;;;;;;;7.25;5.05;;;;;;;-3.07;71.71;99836.21;1599765;89;21072;-72
2022/12/14 00:26:17;;;;;;;7.25;5.33;;;;;;;-3.11;71.71;99835.89;1618816;87;21093;-73
2022/12/14 00:28:45;;;;;;;15.90;11.30;;;;;;;-3.11;71.76;99843.64;1584036;89;21845;-72
2022/12/14 00:31:15;;;;;;;9.53;7.75;;;;;;;-3.11;71.79;99845.78;1594843;87;21110;-73
2022/12/14 00:33:44;;;;;;;7.72;5.80;;;;;;;-3.11;71.81;99847.52;1612489;87;20977;-74
2022/12/14 00:36:11;;;;;;;7.17;5.28;;;;;;;-3.10;71.89;99855.22;1614053;88;21491;-72
2022/12/14 00:38:39;;;;;;;8.15;5.97;;;;;;;-3.06;72.04;99854.69;1605481;88;21827;-72
2022/12/14 00:41:05;;;;;;;7.72;5.22;;;;;;;-3.05;72.02;99858.51;1586292;88;21858;-73
2022/12/14 00:43:32;;;;;;;6.87;5.47;;;;;;;-3.03;71.97;99862.33;1578381;89;22186;-73
2022/12/14 00:45:59;;;;;;;6.33;4.97;;;;;;;-3.02;72.03;99866.59;1589096;88;21032;-72
2022/12/14 00:48:26;;;;;;;7.95;5.80;;;;;;;-3.01;72.00;99873.00;1599831;88;21057;-73
2022/12/14 00:50:53;;;;;;;7.65;5.60;;;;;;;-2.99;71.93;99869.95;1595898;89;20986;-72
2022/12/14 00:53:21;;;;;;;8.20;5.60;;;;;;;-3.00;71.89;99870.81;1578180;87;21941;-72
2022/12/14 00:55:49;;;;;;;8.30;5.42;;;;;;;-3.00;71.85;99872.11;1602392;88;21032;-72
2022/12/14 00:58:19;;;;;;;8.28;5.78;;;;;;;-3.00;71.89;99880.30;1601173;87;21219;-72
2022/12/14 01:00:47;;;;;;;7.37;5.60;;;;;;;-2.97;71.91;99884.11;1567466;89;21027;-73
2022/12/14 01:03:14;;;;;;;8.10;5.92;;;;;;;-2.99;71.83;99881.58;1591192;87;21018;-72
2022/12/14 01:05:42;;;;;;;9.45;6.37;;;;;;;-3.02;71.76;99889.85;1627159;86;21738;-74
2022/12/14 01:08:09;;;;;;;10.20;6.80;;;;;;;-3.07;71.70;99896.92;1600488;87;21045;-73
2022/12/14 01:10:40;;;;;;;9.20;6.67;;;;;;;-3.09;71.74;99893.06;1583443;88;21070;-74
2022/12/14 01:13:09;;;;;;;11.28;7.05;;;;;;;-3.10;71.68;99905.59;1607577;87;21234;-73
2022/12/14 01:15:36;;;;;;;9.75;6.95;;;;;;;-3.12;71.59;99915.13;1585074;88;21448;-73
2022/12/14 01:18:03;;;;;;;9.00;6.45;;;;;;;-3.15;71.51;99911.80;1594623;88;22011;-72
2022/12/14 01:20:30;;;;;;;10.15;7.10;;;;;;;-3.21;71.43;99911.53;1597568;88;21077;-73
2022/12/14 01:22:57;;;;;;;10.40;7.03;;;;;;;-3.26;71.41;99916.02;1584199;88;21068;-73
2022/12/14 01:25:25;;;;;;;10.28;7.10;;;;;;;-3.31;71.42;99917.87;1585311;88;21125;-71
2022/12/14 01:27:54;;;;;;;11.43;7.25;;;;;;;-3.32;71.46;99920.06;1584238;88;21118;-72
2022/12/14 01:30:22;;;;;;;9.20;6.65;;;;;;;-3.36;71.41;99933.52;1582314;89;21148;-72
2022/12/14 01:32:51;;;;;;;8.40;6.20;;;;;;;-3.39;71.35;99940.05;1583223;88;20957;-72
2022/12/14 01:35:17;;;;;;;10.68;6.40;;;;;;;-3.43;71.35;99942.77;1552622;89;21145;-72
2022/12/14 01:37:45;;;;;;;8.40;6.10;;;;;;;-3.48;71.40;99948.89;1576492;89;21141;-72
2022/12/14 01:40:12;;;;;;;9.83;6.97;;;;;;;-3.50;71.46;99953.71;1604198;87;21000;-72
2022/12/14 01:42:38;;;;;;;9.25;6.80;;;;;;;-3.52;71.45;99948.59;1581824;87;21858;-72
2022/12/14 01:45:16;;;;;;;9.98;6.62;;;;;;;-3.55;71.47;99948.70;1605761;88;21046;-72
2022/12/14 01:47:48;;;;;;;20.48;12.37;;;;;;;-3.56;71.45;99954.75;1599722;88;21004;-73
2022/12/14 01:50:25;;;;;;;28.55;18.15;;;;;;;-3.59;71.46;99959.98;1589414;88;21139;-72
2022/12/14 01:52:57;;;;;;;28.07;17.70;;;;;;;-3.64;71.44;99964.44;1564698;89;21429;-73
2022/12/14 01:55:35;;;;;;;15.00;10.43;;;;;;;-3.68;71.48;99969.27;1542343;90;21906;-73
2022/12/14 01:58:12;;;;;;;11.95;8.20;;;;;;;-3.71;71.49;99973.23;1537401;92;21147;-72
2022/12/14 02:00:39;;;;;;;12.58;10.15;;;;;;;-3.75;71.47;99976.80;1574049;89;21147;-72
2022/12/14 02:03:21;;;;;;;12.73;9.33;;;;;;;-3.79;71.50;99979.89;1565286;89;21167;-74
2022/12/14 02:05:57;;;;;;;12.28;7.72;;;;;;;-3.82;71.57;99984.30;1566040;89;21085;-72
2022/12/14 02:08:24;;;;;;;13.80;9.38;;;;;;;-3.87;71.58;99981.83;1564298;89;22516;-73
2022/12/14 02:10:52;;;;;;;56.50;26.87;;;;;;;-3.89;71.71;99981.03;1572005;89;21370;-73
2022/12/14 02:13:32;;;;;;;43.13;21.62;;;;;;;-3.91;71.72;99979.38;1548505;90;21013;-73
2022/12/14 02:15:59;;;;;;;32.40;16.57;;;;;;;-3.91;71.85;99987.13;1550188;90;21740;-70
2022/12/14 02:18:29;;;;;;;17.45;10.68;;;;;;;-3.89;72.01;99992.64;1529730;91;21560;-74
2022/12/14 02:21:25;;;;;;;12.45;8.70;;;;;;;-3.87;72.12;100002.91;1541983;90;22507;-73
2022/12/14 02:24:31;;;;;;;12.90;7.95;;;;;;;-3.85;72.25;100003.30;1552937;91;21080;-71
2022/12/14 02:27:33;;;;;;;12.60;9.40;;;;;;;-3.81;72.45;100004.05;1541551;91;21102;-71
2022/12/14 02:30:08;;;;;;;10.28;7.55;;;;;;;-3.75;72.61;100007.77;1533114;91;21123;-71
2022/12/14 02:33:00;;;;;;;18.27;10.93;;;;;;;-3.69;72.72;100006.73;1533122;92;21063;-74
2022/12/14 02:35:52;;;;;;;12.43;9.00;;;;;;;-3.65;72.78;100003.20;1522112;91;22071;-73
2022/12/14 02:38:37;;;;;;;12.18;8.83;;;;;;;-3.62;72.85;100008.27;1532676;92;21521;-72
2022/12/14 02:41:37;;;;;;;14.13;8.98;;;;;;;-3.59;72.92;99999.98;1526777;91;21004;-73
2022/12/14 02:44:28;;;;;;;11.35;8.40;;;;;;;-3.55;72.97;100003.35;1549877;91;21132;-73
2022/12/14 02:47:12;;;;;;;11.38;8.23;;;;;;;-3.55;73.03;100010.66;1559030;89;21499;-72
2022/12/14 02:50:08;;;;;;;10.70;7.85;;;;;;;-3.54;73.08;99999.88;1547790;89;21888;-72
2022/12/14 02:53:12;;;;;;;11.25;8.55;;;;;;;-3.54;73.14;100002.02;1555297;90;21268;-74
2022/12/14 02:55:46;;;;;;;11.25;8.93;;;;;;;-3.49;73.30;100004.45;1539380;91;21039;-73
2022/12/14 02:58:36;;;;;;;11.22;8.20;;;;;;;-3.44;73.35;100002.60;1556489;90;21027;-71
2022/12/14 03:01:02;;;;;;;11.08;8.48;;;;;;;-3.42;73.31;100012.44;1582232;88;22165;-73
2022/12/14 03:03:29;;;;;;;13.62;9.05;;;;;;;-3.40;73.36;100009.80;1563630;89;22001;-73
2022/12/14 03:06:01;;;;;;;11.97;9.28;;;;;;;-3.39;73.37;100020.53;1570527;88;21084;-72
2022/12/14 03:08:31;;;;;;;16.05;10.98;;;;;;;-3.39;73.44;100016.21;1588223;88;21071;-72
2022/12/14 03:11:01;;;;;;;12.20;9.00;;;;;;;-3.37;73.46;100023.94;1594011;87;21005;-72
2022/12/14 03:13:37;;;;;;;11.75;8.83;;;;;;;-3.34;73.52;100032.88;1587746;88;21183;-72
2022/12/14 03:16:29;;;;;;;11.22;8.95;;;;;;;-3.34;73.50;100034.17;1590544;88;21941;-73
2022/12/14 03:19:25;;;;;;;12.55;8.60;;;;;;;-3.35;73.54;100041.08;1581661;88;21086;-74
2022/12/14 03:21:59;;;;;;;13.60;10.13;;;;;;;-3.35;73.66;100044.95;1584422;88;21138;-73
2022/12/14 03:24:34;;;;;;;19.32;11.75;;;;;;;-3.34;73.67;100049.67;1589485;88;27612;-75
2022/12/14 03:27:19;;;;;;;34.95;18.67;;;;;;;-3.34;73.71;100050.52;1559969;88;22255;-74
2022/12/14 03:29:58;;;;;;;22.42;13.95;;;;;;;-3.33;73.74;100053.49;1588394;88;21980;-72
2022/12/14 03:32:27;;;;;;;13.83;10.55;;;;;;;-3.33;73.76;100053.49;1574783;89;21084;-73
2022/12/14 03:34:59;;;;;;;12.73;9.53;;;;;;;-3.34;73.82;100060.84;1593768;87;21105;-73
2022/12/14 03:37:41;;;;;;;12.45;9.13;;;;;;;-3.34;73.91;100060.00;1592687;87;21099;-74
2022/12/14 03:40:12;;;;;;;13.18;10.08;;;;;;;-3.34;73.97;100065.16;1607252;88;21095;-72
2022/12/14 03:43:06;;;;;;;12.80;9.30;;;;;;;-3.37;74.06;100065.26;1597354;87;21909;-73
2022/12/14 03:45:56;;;;;;;13.98;10.25;;;;;;;-3.38;74.21;100068.70;1584046;88;21095;-72
2022/12/14 03:48:31;;;;;;;16.48;12.13;;;;;;;-3.38;74.34;100081.61;1600444;87;21071;-72
2022/12/14 03:51:21;;;;;;;19.25;13.13;;;;;;;-3.38;74.45;100079.03;1604661;87;21063;-72
2022/12/14 03:54:02;;;;;;;15.75;10.38;;;;;;;-3.36;74.57;100085.02;1590428;87;21037;-73
2022/12/14 03:56:54;;;;;;;14.20;10.15;;;;;;;-3.35;74.65;100088.00;1595702;87;21810;-73
2022/12/14 03:59:32;;;;;;;17.45;10.53;;;;;;;-3.33;74.75;100089.65;1582278;87;21225;-72
2022/12/14 04:02:05;;;;;;;14.18;10.32;;;;;;;-3.30;74.85;100093.43;1597560;87;21135;-76
2022/12/14 04:04:41;;;;;;;18.53;12.13;;;;;;;-3.27;74.97;100093.81;1597863;87;21057;-73
2022/12/14 04:07:16;;;;;;;14.38;9.63;;;;;;;-3.23;75.12;100096.25;1589050;88;21290;-73
2022/12/14 04:10:03;;;;;;;16.67;11.20;;;;;;;-3.18;75.17;100099.58;1587281;88;22608;-73
2022/12/14 04:21:20;;;;;;;16.20;11.25;;;;;;;-3.19;75.08;100109.92;1577920;88;21499;-73
2022/12/14 04:26:40;;;;;;;15.32;10.60;;;;;;;-3.20;75.02;100117.27;1588856;88;21498;-73
2022/12/14 04:32:01;;;;;;;15.25;10.90;;;;;;;-3.20;74.95;100121.14;1595574;89;21067;-72
2022/12/14 04:34:29;;;;;;;16.12;10.72;;;;;;;-3.20;74.87;100122.44;1604420;88;27683;-73
2022/12/14 04:36:59;;;;;;;21.40;15.50;;;;;;;-3.22;74.78;100123.77;1599353;88;21881;-74
2022/12/14 04:39:49;;;;;;;21.23;14.80;;;;;;;-3.22;74.75;100124.22;1587250;87;21565;-73
2022/12/14 04:42:16;;;;;;;20.12;13.05;;;;;;;-3.22;74.61;100125.51;1578399;87;21073;-72
2022/12/14 04:44:50;;;;;;;16.67;11.88;;;;;;;-3.22;74.60;100134.55;1591836;88;21083;-72
2022/12/14 04:47:16;;;;;;;16.00;11.60;;;;;;;-3.22;74.46;100133.26;1572406;88;21081;-72
2022/12/14 04:49:52;;;;;;;17.27;13.78;;;;;;;-3.22;74.41;100143.14;1587117;87;21932;-75
2022/12/14 04:52:24;;;;;;;21.33;15.63;;;;;;;-3.23;74.33;100140.16;1571563;89;20994;-72
2022/12/14 04:55:11;;;;;;;20.25;14.90;;;;;;;-3.23;74.23;100144.48;1572179;88;21049;-72
2022/12/14 04:57:55;;;;;;;16.07;11.12;;;;;;;-3.22;74.21;100147.47;1594300;87;21419;-71
2022/12/14 05:00:23;;;;;;;13.85;10.45;;;;;;;-3.24;73.98;100151.83;1592421;88;21752;-73
2022/12/14 05:03:14;;;;;;;15.63;11.28;;;;;;;-3.26;73.84;100150.59;1601338;87;21845;-73
2022/12/14 05:05:58;;;;;;;12.75;10.18;;;;;;;-3.28;73.64;100155.36;1597304;87;21013;-73
2022/12/14 05:08:55;;;;;;;13.70;9.85;;;;;;;-3.32;73.47;100157.64;1572319;89;21508;-71
2022/12/14 05:11:38;;;;;;;15.00;10.48;;;;;;;-3.35;73.31;100161.60;1591914;88;21033;-71
2022/12/14 05:14:08;;;;;;;14.03;10.28;;;;;;;-3.40;73.04;100166.87;1573018;87;21032;-71
2022/12/14 05:16:35;;;;;;;12.50;9.50;;;;;;;-3.43;72.98;100172.56;1591348;88;23468;-73
2022/12/14 05:19:03;;;;;;;14.30;9.55;;;;;;;-3.48;72.82;100178.67;1577950;89;21012;-71
2022/12/14 05:21:48;;;;;;;14.13;10.40;;;;;;;-3.49;72.75;100189.05;1570010;90;21050;-72
2022/12/14 05:24:15;;;;;;;16.02;12.13;;;;;;;-3.51;72.70;100190.38;1592158;88;21024;-73
2022/12/14 05:26:42;;;;;;;16.15;12.00;;;;;;;-3.55;72.53;100187.92;1600684;89;21013;-72
2022/12/14 05:29:09;;;;;;;14.98;11.40;;;;;;;-3.60;72.49;100193.19;1598856;87;21787;-76
2022/12/14 05:31:35;;;;;;;15.15;11.45;;;;;;;-3.64;72.48;100192.02;1591881;88;21005;-73
2022/12/14 05:34:02;;;;;;;14.80;11.60;;;;;;;-3.66;72.46;100204.97;1594324;89;21001;-73
2022/12/14 05:36:29;;;;;;;13.40;10.10;;;;;;;-3.66;72.39;100202.84;1597833;89;21029;-73
2022/12/14 05:38:55;;;;;;;14.83;11.10;;;;;;;-3.66;72.39;100208.00;1600961;89;21005;-73
2022/12/14 05:41:22;;;;;;;13.13;9.70;;;;;;;-3.69;72.27;100216.63;1581975;89;22535;-74
2022/12/14 05:43:48;;;;;;;12.55;9.70;;;;;;;-3.71;72.18;100219.70;1590869;89;20994;-73
2022/12/14 05:46:15;;;;;;;13.40;10.43;;;;;;;-3.74;72.17;100224.95;1585967;89;21108;-73
2022/12/14 05:48:43;;;;;;;15.75;11.68;;;;;;;-3.76;72.13;100229.30;1588098;88;21010;-73
2022/12/14 05:51:11;;;;;;;13.93;10.75;;;;;;;-3.79;72.10;100236.65;1581787;89;21050;-73
2022/12/14 05:53:39;;;;;;;14.20;10.53;;;;;;;-3.79;72.03;100239.67;1558372;90;21892;-73
2022/12/14 05:56:07;;;;;;;14.35;10.82;;;;;;;-3.80;71.97;100234.95;1590741;89;21105;-73
2022/12/14 05:58:34;;;;;;;18.25;12.68;;;;;;;-3.81;71.91;100241.00;1601168;89;21034;-77
2022/12/14 06:01:02;;;;;;;15.68;11.08;;;;;;;-3.83;71.82;100237.61;1592334;89;21009;-73
2022/12/14 06:03:28;;;;;;;14.65;11.15;;;;;;;-3.85;71.70;100238.55;1610436;88;21026;-75
2022/12/14 06:06:04;;;;;;;14.20;11.05;;;;;;;-3.89;71.62;100244.64;1605225;88;21819;-74
2022/12/14 06:08:33;;;;;;;13.70;11.10;;;;;;;-3.94;71.53;100250.36;1588130;89;21492;-74
2022/12/14 06:11:12;;;;;;;14.75;11.10;;;;;;;-4.00;71.44;100253.91;1593296;89;20997;-74
2022/12/14 06:13:39;;;;;;;14.70;11.28;;;;;;;-4.07;71.34;100258.34;1581623;89;21028;-73
2022/12/14 06:16:22;;;;;;;14.10;10.38;;;;;;;-4.11;71.38;100259.30;1586627;89;21030;-74
2022/12/14 06:18:53;;;;;;;;;;;;;;;-4.14;71.32;100266.27;1589018;89;21878;-73
2022/12/14 06:21:27;;;;;;;13.95;10.53;;;;;;;-4.20;71.25;100262.52;1576326;90;20161;-74
2022/12/14 06:23:54;;;;;;;18.98;13.58;;;;;;;-4.26;71.22;100267.34;1583698;89;20982;-72
2022/12/14 06:28:09;;;;;;;27.83;19.17;;;;;;;-4.31;71.19;100282.08;1801207;77;28165;-71
2022/12/14 06:30:36;;;;;;;25.40;18.42;;;;;;;-4.41;71.12;100279.28;1775272;80;20941;-73
2022/12/14 06:33:03;;;;;;;20.82;15.68;;;;;;;-4.53;71.12;100276.95;1784950;80;21730;-73
2022/12/14 06:35:30;;;;;;;20.27;13.50;;;;;;;-4.58;71.18;100289.91;1773611;80;21047;-72
2022/12/14 06:37:56;;;;;;;16.82;13.08;;;;;;;-4.65;71.22;100296.89;1780071;78;20999;-72
2022/12/14 06:40:23;;;;;;;17.55;12.37;;;;;;;-4.69;71.36;100298.28;1751619;80;20995;-72
2022/12/14 06:42:49;;;;;;;16.62;12.23;;;;;;;-4.73;71.45;100301.77;1786963;78;20943;-73
2022/12/14 06:45:16;;;;;;;18.48;13.75;;;;;;;-4.77;71.51;100311.30;1749939;80;21944;-71
2022/12/14 06:47:43;;;;;;;16.30;11.88;;;;;;;-4.79;71.61;100312.21;1756611;78;21436;-73
2022/12/14 06:50:10;;;;;;;18.30;13.18;;;;;;;-4.80;71.71;100327.27;1776043;78;21035;-74
2022/12/14 06:52:38;;;;;;;19.67;13.60;;;;;;;-4.80;71.85;100338.41;1738995;80;21092;-72
2022/12/14 06:55:06;;;;;;;18.48;13.08;;;;;;;-4.75;71.98;100331.87;1747227;81;21020;-72
2022/12/14 06:57:34;;;;;;;17.77;12.28;;;;;;;-4.71;72.07;100333.10;1719390;81;21044;-72
2022/12/14 07:00:02;;;;;;;19.57;13.62;;;;;;;-4.68;72.07;100338.19;1719475;82;21723;-72
2022/12/14 07:02:31;;;;;;;25.27;15.90;;;;;;;-4.67;72.09;100346.77;1713126;82;21582;-72
2022/12/14 07:04:58;;;;;;;27.05;18.48;;;;;;;-4.68;72.10;100358.81;1695980;82;20988;-72
2022/12/14 07:07:24;;;;;;;25.95;17.20;;;;;;;-4.69;72.18;100359.69;1726528;82;21067;-73
2022/12/14 07:09:51;;;;;;;28.15;19.10;;;;;;;-4.70;72.24;100368.30;1708560;82;21899;-72
2022/12/14 07:12:21;;;;;;;24.57;17.80;;;;;;;-4.68;72.29;100365.25;1705400;81;20958;-73
2022/12/14 07:14:49;;;;;;;20.80;14.95;;;;;;;-4.68;72.30;100361.38;1720287;81;20975;-75
2022/12/14 07:17:16;;;;;;;21.57;17.20;;;;;;;-4.69;72.30;100365.28;1701222;82;21538;-74
2022/12/14 07:19:43;;;;;;;24.27;16.42;;;;;;;-4.73;72.23;100371.34;1706452;82;21019;-73
2022/12/14 07:22:11;;;;;;;23.40;15.60;;;;;;;-4.77;72.23;100372.28;1698365;83;21279;-74
2022/12/14 07:24:38;;;;;;;26.55;17.50;;;;;;;-4.80;72.20;100383.95;1675833;83;20966;-75
2022/12/14 07:27:04;;;;;;;21.70;16.25;;;;;;;-4.82;72.23;100386.98;1691769;84;21064;-76
2022/12/14 07:29:31;;;;;;;22.02;14.75;;;;;;;-4.81;72.29;100389.98;1744705;80;21019;-76
2022/12/14 07:31:57;;;;;;;19.67;13.98;;;;;;;-4.77;72.36;100388.59;1741202;81;20990;-74
2022/12/14 07:34:24;;;;;;;20.30;14.30;;;;;;;-4.75;72.41;100393.28;1733311;81;22011;-76
2022/12/14 07:36:52;;;;;;;22.45;15.93;;;;;;;-4.71;72.44;100396.23;1740002;82;21064;-74
2022/12/14 07:39:19;;;;;;;22.82;14.93;;;;;;;-4.68;72.44;100394.89;1742899;80;21043;-75
2022/12/14 07:41:47;;;;;;;25.32;15.53;;;;;;;-4.59;72.56;100394.32;1740133;80;21049;-76
2022/12/14 07:44:16;;;;;;;23.40;14.83;;;;;;;-4.52;72.56;100394.19;1717539;81;21103;-75
2022/12/14 07:46:45;;;;;;;21.82;15.30;;;;;;;-4.44;72.57;100398.78;1740167;80;22186;-75
2022/12/14 07:49:12;;;;;;;16.77;12.90;;;;;;;-4.37;72.58;100405.95;1722147;80;20991;-75
2022/12/14 07:51:40;;;;;;;20.00;13.45;;;;;;;-4.25;72.69;100419.05;1721157;80;21083;-72
2022/12/14 07:54:07;;;;;;;18.02;13.25;;;;;;;-4.15;72.68;100412.84;1722637;81;21432;-71
2022/12/14 07:56:36;;;;;;;18.23;12.45;;;;;;;-4.06;72.64;100421.70;1734352;81;21052;-86
2022/12/14 07:59:03;;;;;;;17.50;13.20;;;;;;;-3.98;72.64;100412.08;1695021;82;21910;-77
2022/12/14 08:01:32;;;;;;;17.12;12.58;;;;;;;-3.88;72.69;100421.79;1735663;81;21036;-77
2022/12/14 08:04:09;;;;;;;14.38;11.10;;;;;;;-3.77;72.70;100423.27;1734548;80;21028;-80
2022/12/14 08:06:36;;;;;;;21.68;15.80;;;;;;;-3.66;72.68;100424.37;1705098;82;21025;-81
2022/12/14 08:09:04;;;;;;;22.25;15.78;;;;;;;-3.54;72.63;100432.30;1724475;82;21105;-75
2022/12/14 08:11:31;;;;;;;20.95;14.63;;;;;;;-3.43;72.58;100434.20;1740659;80;21924;-75
2022/12/14 08:14:00;;;;;;;19.20;14.90;;;;;;;-3.33;72.50;100430.54;1742378;80;21029;-75
2022/12/14 08:16:27;;;;;;;16.75;13.15;;;;;;;-3.25;72.42;100430.37;1737244;80;21038;-78
2022/12/14 08:18:54;;;;;;;18.73;12.85;;;;;;;-3.17;72.31;100429.77;1736144;80;21048;-78
2022/12/14 08:21:21;;;;;;;16.40;12.18;;;;;;;-3.10;72.19;100433.89;1728185;82;21100;-78
2022/12/14 08:23:48;;;;;;;17.05;12.65;;;;;;;-3.03;72.15;100432.88;1736003;80;22305;-79
2022/12/14 08:26:15;;;;;;;16.55;12.13;;;;;;;-2.95;72.01;100436.14;1746611;80;21061;-75
2022/12/14 08:28:42;;;;;;;19.42;12.35;;;;;;;-2.91;71.76;100447.25;1706672;80;21016;-80
2022/12/14 08:31:16;;;;;;;17.10;11.63;;;;;;;-2.91;71.64;100442.92;1708290;82;21068;-79
2022/12/14 08:33:43;;;;;;;21.27;14.68;;;;;;;-2.86;71.59;100444.13;1689267;83;21127;-79
2022/12/14 08:36:15;;;;;;;19.35;13.93;;;;;;;-2.81;71.38;100452.61;1705454;83;21680;-79
2022/12/14 08:38:41;;;;;;;17.65;12.95;;;;;;;-2.80;71.28;100452.16;1719285;82;20991;-79
2022/12/14 08:41:12;;;;;;;15.13;11.08;;;;;;;-2.78;71.19;100446.54;1721769;83;20955;-82
2022/12/14 08:43:40;;;;;;;15.85;11.15;;;;;;;-2.73;71.18;100452.43;1720091;83;21008;-79
2022/12/14 08:46:08;;;;;;;15.10;11.57;;;;;;;-2.67;71.02;100457.02;1714526;83;20980;-79
2022/12/14 08:48:34;;;;;;;17.85;12.45;;;;;;;-2.64;70.90;100453.06;1717313;82;21941;-78
2022/12/14 08:51:04;;;;;;;16.25;12.23;;;;;;;-2.61;70.80;100446.55;1692117;82;21044;-79
2022/12/14 08:53:31;;;;;;;17.80;12.75;;;;;;;-2.58;70.72;100449.49;1697061;82;21019;-79
2022/12/14 08:55:57;;;;;;;17.87;12.43;;;;;;;-2.56;70.65;100451.59;1704110;82;21007;-79
2022/12/14 08:58:25;;;;;;;19.00;12.40;;;;;;;-2.53;70.51;100448.92;1721706;82;21016;-80
2022/12/14 09:01:08;;;;;;;17.82;12.93;;;;;;;-2.52;70.44;100454.49;1716329;82;21923;-80
2022/12/14 09:03:34;;;;;;;16.77;12.30;;;;;;;-2.51;70.36;100447.17;1719993;82;21040;-79
2022/12/14 09:06:06;;;;;;;16.90;12.30;;;;;;;-2.46;70.42;100446.59;1704438;82;21418;-79
2022/12/14 09:08:33;;;;;;;15.80;11.75;;;;;;;-2.41;70.32;100447.34;1717166;83;21063;-79
2022/12/14 09:11:01;;;;;;;17.05;12.95;;;;;;;-2.38;70.27;100447.26;1706463;82;20972;-80
2022/12/14 09:13:27;;;;;;;17.15;13.03;;;;;;;-2.35;70.23;100448.91;1683989;84;21914;-81
2022/12/14 09:16:15;;;;;;;19.95;14.63;;;;;;;-2.34;70.15;100451.90;1724123;82;21060;-81
2022/12/14 09:18:42;;;;;;;19.77;14.38;;;;;;;-2.31;70.03;100454.43;1705365;82;21030;-80
2022/12/14 09:21:08;;;;;;;18.40;14.13;;;;;;;-2.29;69.95;100455.23;1713912;82;21087;-80
2022/12/14 09:23:35;;;;;;;20.50;15.18;;;;;;;-2.32;69.86;100449.70;1697443;82;20995;-79
2022/12/14 09:26:05;;;;;;;20.20;14.38;;;;;;;-2.28;69.90;100454.34;1715147;82;21883;-80
2022/12/14 09:28:34;;;;;;;17.57;13.50;;;;;;;-2.21;69.93;100455.05;1739169;82;21678;-80
2022/12/14 09:31:03;;;;;;;19.37;13.80;;;;;;;-2.17;69.87;100460.53;1748817;82;20978;-80
2022/12/14 09:33:30;;;;;;;17.80;13.72;;;;;;;-2.13;69.80;100467.31;1736707;82;21010;-80
2022/12/14 09:36:10;;;;;;;18.65;13.55;;;;;;;-2.11;69.84;100461.67;1712563;82;20974;-79
2022/12/14 09:38:37;;;;;;;18.67;12.90;;;;;;;-2.04;69.87;100464.04;1740256;82;21930;-80
2022/12/14 09:41:07;;;;;;;19.90;14.75;;;;;;;-1.97;69.89;100451.80;1745297;82;21049;-80
2022/12/14 09:43:40;;;;;;;19.52;14.73;;;;;;;-1.93;69.83;100462.48;1669514;85;21052;-82
2022/12/14 09:46:21;;;;;;;24.75;16.25;;;;;;;-1.92;69.69;100464.63;1685713;84;21144;-80
2022/12/14 09:48:48;;;;;;;22.70;15.48;;;;;;;-1.87;69.61;100467.48;1713097;83;20974;-80
2022/12/14 09:51:16;;;;;;;19.75;14.38;;;;;;;-1.76;69.66;100463.30;1742634;82;21805;-81
2022/12/14 09:53:43;;;;;;;18.67;14.03;;;;;;;-1.62;69.62;100465.53;1736567;82;21070;-81
2022/12/14 09:56:14;;;;;;;18.07;13.20;;;;;;;-1.51;69.54;100462.19;1732901;82;21437;-80
2022/12/14 09:58:44;;;;;;;17.80;13.18;;;;;;;-1.37;69.39;100467.80;1746013;82;20962;-81
2022/12/14 10:01:22;;;;;;;19.90;14.93;;;;;;;-1.27;68.94;100466.64;1714846;82;21436;-80
2022/12/14 10:04:09;;;;;;;18.27;14.13;;;;;;;-1.28;68.64;100467.54;1711949;82;22497;-81
2022/12/14 10:06:58;;;;;;;24.47;16.48;;;;;;;-1.19;68.71;100475.04;1702017;83;20986;-81
2022/12/14 10:09:39;;;;;;;19.73;14.00;;;;;;;-1.06;68.49;100470.78;1737139;82;21508;-82
2022/12/14 10:12:19;;;;;;;24.15;15.08;;;;;;;-1.03;67.99;100459.89;1748178;82;21504;-80
2022/12/14 10:15:20;;;;;;;23.10;16.42;;;;;;;-1.00;67.98;100461.53;1739767;82;20966;-80
2022/12/14 10:18:24;;;;;;;20.92;14.85;;;;;;;-0.89;68.07;100458.16;1729156;81;21956;-78
2022/12/14 10:20:54;;;;;;;;;;;;;;;-0.69;68.28;100459.67;1703040;82;20955;-82
2022/12/14 10:23:23;;;;;;;18.50;13.10;;;;;;;-0.49;68.23;100461.63;1745486;81;20143;-80
2022/12/14 10:25:54;;;;;;;20.40;14.47;;;;;;;-0.42;67.90;100472.66;1723137;82;20981;-79
2022/12/14 10:28:51;;;;;;;20.20;14.55;;;;;;;-0.44;67.23;100471.87;1713261;82;21044;-78
2022/12/14 10:31:33;;;;;;;19.15;13.83;;;;;;;-0.47;66.92;100470.69;1671185;83;22384;-80
2022/12/14 10:34:05;;;;;;;19.85;14.13;;;;;;;-0.49;66.50;100478.94;1729619;81;20942;-81
2022/12/14 10:36:40;;;;;;;19.92;14.75;;;;;;;-0.54;66.38;100479.55;1731576;81;21033;-81
2022/12/14 10:39:18;;;;;;;21.70;14.73;;;;;;;-0.48;66.43;100481.93;1710841;83;21001;-80
2022/12/14 10:42:10;;;;;;;22.62;16.57;;;;;;;-0.43;66.42;100484.79;1686705;84;21045;-81
2022/12/14 10:45:05;;;;;;;23.70;16.75;;;;;;;-0.33;66.64;100484.89;1726981;81;22896;-79
2022/12/14 10:47:41;;;;;;;20.62;14.73;;;;;;;-0.21;66.44;100491.41;1739593;81;21029;-81
2022/12/14 10:50:40;;;;;;;20.05;14.65;;;;;;;-0.07;66.59;100493.11;1743780;81;21002;-79
2022/12/14 10:53:12;;;;;;;15.93;11.30;;;;;;;0.13;66.87;100488.53;1744822;81;21384;-77
2022/12/14 10:55:39;;;;;;;16.93;12.10;;;;;;;0.27;65.91;100496.67;1756009;81;20978;-78
2022/12/14 10:58:09;;;;;;;16.85;12.05;;;;;;;0.34;65.80;100493.42;1758459;81;21918;-80
2022/12/14 11:00:36;;;;;;;16.05;11.65;;;;;;;0.41;65.56;100500.11;1736630;82;21388;-78
2022/12/14 11:03:03;;;;;;;15.28;12.50;;;;;;;0.41;64.89;100500.56;1738168;82;21013;-78
2022/12/14 11:05:44;;;;;;;19.45;12.28;;;;;;;0.31;64.54;100503.94;1728992;81;20958;-77
2022/12/14 11:08:11;;;;;;;17.42;13.05;;;;;;;0.22;64.23;100502.95;1738136;81;20945;-79
2022/12/14 11:10:40;;;;;;;15.18;11.63;;;;;;;0.12;64.42;100506.77;1668070;84;21945;-78
2022/12/14 11:13:18;;;;;;;16.48;12.25;;;;;;;0.07;64.30;100510.81;1744665;82;20922;-81
2022/12/14 11:15:53;;;;;;;16.10;11.80;;;;;;;0.00;64.15;100510.64;1699828;83;20989;-80
2022/12/14 11:18:31;;;;;;;14.50;11.08;;;;;;;0.01;64.23;100503.25;1716843;82;20967;-79
2022/12/14 11:21:03;;;;;;;13.68;10.53;;;;;;;0.00;64.40;100500.25;1751325;80;21057;-79
2022/12/14 11:23:43;;;;;;;18.82;12.43;;;;;;;0.02;63.80;100503.64;1700575;82;21903;-79
2022/12/14 11:26:36;;;;;;;21.40;12.18;;;;;;;-0.04;63.70;100498.19;1757505;81;21446;-79
2022/12/14 11:29:05;;;;;;;15.08;11.25;;;;;;;0.03;63.91;100509.23;1753779;81;21013;-79
2022/12/14 11:31:39;;;;;;;18.52;13.58;;;;;;;0.20;64.25;100506.06;1747445;81;21047;-80
2022/12/14 11:34:26;;;;;;;23.00;16.12;;;;;;;0.33;64.18;100504.72;1724878;81;21412;-79
2022/12/14 11:36:53;;;;;;;16.57;12.50;;;;;;;0.39;63.90;100504.52;1717240;82;21936;-79
2022/12/14 11:39:22;;;;;;;22.73;16.17;;;;;;;0.41;63.30;100507.91;1721809;83;20927;-76
2022/12/14 11:42:00;;;;;;;23.62;16.20;;;;;;;0.27;62.76;100501.03;1694071;83;21027;-77
2022/12/14 11:44:30;;;;;;;23.35;15.85;;;;;;;0.15;62.67;100503.61;1671576;84;20969;-78
2022/12/14 11:47:07;;;;;;;27.95;19.92;;;;;;;0.04;62.83;100501.83;1712262;82;21008;-76
2022/12/14 11:49:41;;;;;;;62.67;39.70;;;;;;;-0.01;62.81;100508.47;1690083;82;22355;-76
2022/12/14 11:52:39;;;;;;;44.65;28.65;;;;;;;-0.03;62.84;100515.47;1691425;83;21043;-79
2022/12/14 11:55:16;;;;;;;25.35;17.25;;;;;;;-0.04;62.74;100518.97;1699704;83;21043;-75
2022/12/14 11:57:57;;;;;;;16.07;12.35;;;;;;;-0.11;62.70;100524.41;1697039;83;21079;-76